Time;durP1;ratioP1;P1;durP2;ratioP2;P2;SDS_P1;SDS_P2;PMS_P1;PMS_P2;Temp;Humidity;BMP_temperature;BMP_pressure;BME280_temperature;BME280_humidity;BME280_pressure;Samples;Min_cycle;Max_cycle;Signal;HPM_P1;HPM_P2
2022/09/28 00:02:08;;;;;;;1.08;0.57;;;7.40;99.90;;;;;;6130059;23;20026;-90
2022/09/28 00:04:36;;;;;;;0.88;0.57;;;7.40;99.90;;;;;;6099221;23;20122;-90
2022/09/28 00:07:11;;;;;;;0.60;0.60;;;7.40;99.90;;;;;;6098158;23;20026;-91
2022/09/28 00:09:42;;;;;;;0.68;0.68;;;7.40;99.90;;;;;;6122157;23;20014;-91
2022/09/28 00:12:27;;;;;;;0.50;0.50;;;7.40;99.90;;;;;;6123333;23;20366;-92
2022/09/28 00:15:01;;;;;;;1.20;0.63;;;7.40;99.90;;;;;;6160454;23;20562;-91
2022/09/28 00:17:29;;;;;;;0.95;0.50;;;7.40;99.90;;;;;;6188516;23;20020;-91
2022/09/28 00:20:41;;;;;;;0.50;0.50;;;7.50;99.90;;;;;;6214287;23;20027;-91
2022/09/28 00:29:03;;;;;;;2.60;0.90;;;7.50;99.90;;;;;;6224506;23;20009;-91
2022/09/28 00:32:28;;;;;;;0.88;0.65;;;7.50;99.90;;;;;;6197169;23;20264;-91
2022/09/28 00:36:33;;;;;;;0.50;0.50;;;7.60;99.90;;;;;;6201393;23;20471;-90
2022/09/28 00:39:33;;;;;;;;;;;7.50;99.90;;;;;;6033898;23;20019;-92
2022/09/28 00:43:48;;;;;;;0.60;0.60;;;7.60;99.90;;;;;;6078020;23;19940;-91
2022/09/28 00:47:45;;;;;;;1.42;0.90;;;7.70;99.90;;;;;;6035926;23;20110;-92
2022/09/28 00:51:42;;;;;;;0.55;0.50;;;7.60;99.90;;;;;;6123302;23;20018;-90
2022/09/28 00:54:56;;;;;;;0.88;0.55;;;7.70;99.90;;;;;;6085320;23;20056;-88
2022/09/28 00:58:53;;;;;;;0.60;0.60;;;7.60;99.90;;;;;;6130673;23;20030;-88
2022/09/28 01:01:55;;;;;;;0.70;0.70;;;7.70;99.90;;;;;;6031699;23;20023;-83
2022/09/28 01:04:43;;;;;;;0.60;0.57;;;7.70;99.90;;;;;;6074193;23;20024;-89
2022/09/28 01:08:44;;;;;;;0.50;0.50;;;7.70;99.90;;;;;;5996117;23;20023;-92
2022/09/28 01:17:25;;;;;;;1.02;0.80;;;7.60;99.90;;;;;;5921436;24;20028;-91
2022/09/28 01:20:54;;;;;;;1.10;0.60;;;7.60;99.90;;;;;;5890049;24;20037;-92
2022/09/28 01:24:54;;;;;;;0.50;0.50;;;7.60;99.90;;;;;;5934107;23;20031;-91
2022/09/28 01:27:57;;;;;;;0.50;0.50;;;7.50;99.90;;;;;;6015687;23;20054;-92
2022/09/28 01:30:32;;;;;;;0.60;0.60;;;7.60;99.90;;;;;;6019324;23;20030;-89
2022/09/28 01:33:16;;;;;;;1.95;0.50;;;7.50;99.90;;;;;;6019467;23;20022;-90
2022/09/28 01:35:55;;;;;;;0.70;0.70;;;7.50;99.90;;;;;;6026826;23;20475;-90
2022/09/28 01:38:32;;;;;;;0.65;0.65;;;7.50;99.90;;;;;;6048356;23;20022;-90
2022/09/28 01:41:13;;;;;;;0.60;0.60;;;7.60;99.90;;;;;;6053198;23;20470;-90
2022/09/28 01:43:58;;;;;;;0.65;0.60;;;7.50;99.90;;;;;;6018699;23;20019;-90
2022/09/28 01:46:45;;;;;;;0.60;0.60;;;7.50;99.90;;;;;;6086397;23;20018;-90
2022/09/28 01:49:33;;;;;;;0.80;0.68;;;7.60;99.90;;;;;;6136235;23;20024;-90
2022/09/28 01:52:26;;;;;;;0.80;0.80;;;7.50;99.90;;;;;;6145086;23;20032;-90
2022/09/28 01:55:23;;;;;;;0.50;0.50;;;7.50;99.90;;;;;;6111302;23;20043;-90
2022/09/28 01:58:22;;;;;;;0.30;0.30;;;7.50;99.90;;;;;;6144791;23;20026;-90
2022/09/28 02:01:09;;;;;;;0.60;0.57;;;7.50;99.90;;;;;;6135200;23;20013;-90
2022/09/28 02:03:51;;;;;;;0.55;0.55;;;7.50;99.90;;;;;;6135065;23;20333;-90
2022/09/28 02:06:46;;;;;;;0.47;0.47;;;7.50;99.90;;;;;;6159642;23;20017;-90
2022/09/28 02:09:57;;;;;;;0.60;0.60;;;7.40;99.90;;;;;;6135713;23;20013;-90
2022/09/28 02:13:19;;;;;;;1.15;1.00;;;7.50;99.90;;;;;;6135872;23;20033;-90
2022/09/28 02:16:10;;;;;;;4.32;0.70;;;7.50;99.90;;;;;;6031111;23;20022;-90
2022/09/28 02:18:44;;;;;;;0.70;0.50;;;7.50;99.90;;;;;;6061210;23;20032;-91
2022/09/28 02:22:22;;;;;;;0.82;0.82;;;7.50;99.90;;;;;;6105010;23;20025;-90
2022/09/28 02:25:51;;;;;;;0.65;0.55;;;7.50;99.90;;;;;;6127461;23;20048;-90
2022/09/28 02:28:51;;;;;;;1.70;0.60;;;7.50;99.90;;;;;;6105930;23;20029;-90
2022/09/28 02:31:39;;;;;;;0.40;0.40;;;7.50;99.90;;;;;;6078347;23;20029;-91
2022/09/28 02:34:36;;;;;;;0.50;0.50;;;7.50;99.90;;;;;;6130283;23;20475;-92
2022/09/28 02:37:44;;;;;;;0.50;0.50;;;7.50;99.90;;;;;;6225146;23;20043;-90
2022/09/28 02:41:19;;;;;;;0.60;0.60;;;7.50;99.90;;;;;;6187955;23;20013;-91
2022/09/28 02:45:04;;;;;;;0.60;0.60;;;7.50;99.90;;;;;;6201634;23;20031;-92
2022/09/28 02:48:08;;;;;;;0.40;0.40;;;7.40;99.90;;;;;;6167335;23;20539;-90
2022/09/28 02:55:50;;;;;;;0.90;0.90;;;7.30;99.90;;;;;;6237711;23;20031;-89
2022/09/28 02:58:59;;;;;;;0.98;0.73;;;7.40;99.90;;;;;;6164529;23;20012;-89
2022/09/28 03:02:27;;;;;;;0.75;0.75;;;7.40;99.90;;;;;;6189178;23;20032;-91
2022/09/28 03:05:38;;;;;;;0.50;0.50;;;7.40;99.90;;;;;;6214608;23;20017;-89
2022/09/28 03:09:12;;;;;;;0.82;0.82;;;7.30;99.90;;;;;;6222932;23;20033;-91
2022/09/28 03:12:24;;;;;;;0.77;0.77;;;7.30;99.90;;;;;;6142231;23;20453;-91
2022/09/28 03:15:08;;;;;;;1.05;0.80;;;7.30;99.90;;;;;;6167010;23;20025;-90
2022/09/28 03:17:57;;;;;;;0.60;0.52;;;7.30;99.90;;;;;;6188710;23;20040;-89
2022/09/28 03:24:43;;;;;;;0.60;0.60;;;7.30;99.90;;;;;;6203158;23;20025;-90
2022/09/28 03:27:52;;;;;;;0.50;0.50;;;7.20;99.90;;;;;;6215592;23;20024;-89
2022/09/28 03:31:57;;;;;;;0.55;0.55;;;7.10;99.90;;;;;;6140809;23;20440;-89
2022/09/28 03:34:36;;;;;;;3.72;0.80;;;6.90;99.90;;;;;;6187196;23;20013;-83
2022/09/28 03:37:03;;;;;;;6.72;0.73;;;6.90;99.90;;;;;;6225462;23;20020;-83
2022/09/28 03:40:01;;;;;;;2.85;0.60;;;6.90;99.90;;;;;;6214711;23;20352;-90
2022/09/28 03:42:58;;;;;;;0.88;0.88;;;7.00;99.90;;;;;;6185093;23;20019;-89
2022/09/28 03:45:42;;;;;;;1.02;1.02;;;6.90;99.90;;;;;;6185355;23;20455;-89
2022/09/28 03:49:48;;;;;;;0.68;0.68;;;6.90;99.90;;;;;;6183453;23;20025;-89
2022/09/28 03:53:28;;;;;;;2.63;1.70;;;6.80;99.90;;;;;;6203462;23;20352;-90
2022/09/28 03:57:01;;;;;;;1.25;1.17;;;6.80;99.90;;;;;;6162083;23;20025;-90
2022/09/28 04:00:36;;;;;;;0.77;0.77;;;6.80;99.90;;;;;;6211299;23;20028;-91
2022/09/28 04:10:10;;;;;;;1.60;1.48;;;7.00;99.90;;;;;;6166597;23;20033;-91
2022/09/28 04:14:50;;;;;;;1.48;1.38;;;6.90;99.90;;;;;;6026069;23;20042;-91
2022/09/28 04:20:02;;;;;;;1.05;1.02;;;6.90;99.90;;;;;;5995028;23;20031;-90
2022/09/28 04:29:26;;;;;;;2.13;1.75;;;6.80;99.90;;;;;;6134094;23;20029;-90
2022/09/28 04:33:03;;;;;;;2.22;2.10;;;6.90;99.90;;;;;;6043447;23;20022;-90
2022/09/28 04:35:57;;;;;;;1.63;1.45;;;6.80;99.90;;;;;;6076651;23;20018;-93
2022/09/28 04:39:04;;;;;;;2.33;2.20;;;6.80;99.90;;;;;;6147895;23;20028;-92
2022/09/28 04:43:23;;;;;;;2.10;2.00;;;7.00;99.90;;;;;;6065018;23;20050;-92
2022/09/28 04:47:35;;;;;;;1.40;1.30;;;6.90;99.90;;;;;;6016325;23;20035;-90
2022/09/28 04:52:13;;;;;;;1.98;1.75;;;7.00;99.90;;;;;;6001621;23;20031;-93
2022/09/28 04:55:33;;;;;;;3.05;2.80;;;7.00;99.90;;;;;;6009792;23;20453;-93
2022/09/28 04:59:10;;;;;;;3.03;2.38;;;7.00;99.90;;;;;;6100800;23;20029;-92
2022/09/28 05:01:52;;;;;;;2.25;2.05;;;7.00;99.90;;;;;;6128369;23;20024;-89
2022/09/28 05:04:43;;;;;;;2.35;2.13;;;7.00;99.90;;;;;;6161933;23;20459;-90
2022/09/28 05:07:30;;;;;;;2.72;2.53;;;7.10;99.90;;;;;;6157551;23;20024;-90
2022/09/28 05:10:39;;;;;;;2.10;1.90;;;7.10;99.90;;;;;;6137796;23;20025;-92
2022/09/28 05:13:27;;;;;;;3.42;2.55;;;7.10;99.90;;;;;;6137637;23;20019;-90
2022/09/28 05:16:09;;;;;;;3.67;2.88;;;7.10;99.90;;;;;;6164394;23;20021;-91
2022/09/28 05:19:11;;;;;;;2.20;2.00;;;7.10;99.90;;;;;;6196240;23;20020;-93
2022/09/28 05:22:10;;;;;;;2.45;1.80;;;7.20;99.90;;;;;;6184261;23;20028;-92
2022/09/28 05:25:19;;;;;;;2.80;2.60;;;7.10;99.90;;;;;;6161694;23;20020;-92
2022/09/28 05:32:29;;;;;;;7.63;6.82;;;7.20;99.90;;;;;;6068263;23;20030;-90
2022/09/28 05:36:16;;;;;;;7.78;7.18;;;7.20;99.90;;;;;;6037098;23;20450;-92
2022/09/28 05:38:44;;;;;;;5.25;4.75;;;7.20;99.90;;;;;;6043965;23;20026;-92
2022/09/28 05:41:13;;;;;;;4.88;4.47;;;7.20;99.90;;;;;;6067195;23;20019;-91
2022/09/28 05:43:42;;;;;;;2.40;2.20;;;7.20;99.90;;;;;;6042700;23;20030;-91
2022/09/28 05:46:10;;;;;;;4.68;4.28;;;7.10;99.90;;;;;;6042045;23;20030;-90
2022/09/28 05:48:40;;;;;;;2.45;2.25;;;7.20;99.90;;;;;;6066680;23;20019;-92
2022/09/28 08:02:19;;;;;;;1.38;1.13;;;7.90;99.90;;;;;;6205981;22;20105;-86
2022/09/28 08:04:48;;;;;;;1.33;1.23;;;7.90;99.90;;;;;;6223833;23;20455;-85
2022/09/28 08:07:17;;;;;;;2.78;1.17;;;8.20;99.90;;;;;;6224292;23;20016;-85
2022/09/28 08:09:55;;;;;;;1.02;0.90;;;8.10;99.90;;;;;;6189028;23;20035;-85
2022/09/28 08:12:45;;;;;;;2.25;1.65;;;8.20;99.90;;;;;;6216360;23;20616;-86
2022/09/28 08:15:37;;;;;;;1.35;1.25;;;8.20;99.90;;;;;;6202313;23;20415;-85
2022/09/28 08:18:10;;;;;;;2.70;1.10;;;8.20;99.90;;;;;;6246982;23;20043;-87
2022/09/28 09:58:11;;;;;;;1.02;0.60;;;9.90;99.90;;;;;;6131692;23;20032;-89
2022/09/28 10:00:52;;;;;;;0.50;0.50;;;9.90;99.90;;;;;;6153915;23;20014;-86
2022/09/28 10:04:03;;;;;;;1.95;0.70;;;9.50;99.90;;;;;;6123264;23;20366;-89
2022/09/28 10:06:36;;;;;;;2.90;0.77;;;8.90;99.90;;;;;;6144512;23;20026;-87
2022/09/28 10:09:38;;;;;;;0.50;0.50;;;8.60;99.90;;;;;;6130788;23;20022;-86
2022/09/28 10:12:23;;;;;;;0.60;0.60;;;8.40;99.90;;;;;;6081618;23;20030;-89
2022/09/28 10:14:53;;;;;;;1.40;1.30;;;8.40;99.90;;;;;;6118910;23;20029;-85
2022/09/28 10:17:26;;;;;;;1.95;0.50;;;8.30;99.90;;;;;;6073692;23;20014;-89
2022/09/28 10:20:24;;;;;;;0.40;0.40;;;8.40;99.90;;;;;;6128884;23;20037;-86
2022/09/28 10:23:05;;;;;;;0.57;0.57;;;8.30;99.90;;;;;;6079726;23;20025;-86
2022/09/28 10:25:42;;;;;;;0.40;0.40;;;8.30;99.90;;;;;;6092925;23;20029;-86
2022/09/28 10:28:23;;;;;;;0.50;0.50;;;8.30;99.90;;;;;;6154980;23;20014;-89
2022/09/28 10:31:02;;;;;;;0.50;0.50;;;8.40;99.90;;;;;;6097260;23;20486;-86
2022/09/28 10:34:25;;;;;;;0.63;0.60;;;8.30;99.90;;;;;;6082804;23;20033;-87
2022/09/28 10:38:14;;;;;;;0.82;0.82;;;8.30;99.90;;;;;;6059197;23;20034;-87
2022/09/28 10:40:59;;;;;;;2.03;0.50;;;8.20;99.90;;;;;;6032165;23;20022;-87
2022/09/28 10:44:07;;;;;;;0.55;0.55;;;8.20;99.90;;;;;;6036121;23;20670;-86
2022/09/28 10:47:04;;;;;;;0.50;0.50;;;8.10;99.90;;;;;;6035763;23;20031;-87
2022/09/28 10:49:59;;;;;;;0.50;0.50;;;8.10;99.90;;;;;;6059777;23;20459;-86
2022/09/28 10:52:45;;;;;;;0.57;0.57;;;8.20;99.90;;;;;;6059821;23;20347;-85
2022/09/28 10:55:35;;;;;;;0.50;0.50;;;8.10;99.90;;;;;;6058936;23;20026;-86
2022/09/28 11:02:40;;;;;;;0.50;0.50;;;8.30;99.90;;;;;;6013772;23;20026;-86
2022/09/28 11:05:44;;;;;;;0.50;0.50;;;8.30;99.90;;;;;;5942616;23;20024;-87
2022/09/28 11:09:03;;;;;;;;;;;8.40;99.90;;;;;;5979737;23;20368;-86
2022/09/28 11:12:33;;;;;;;2.38;1.67;;;8.30;99.90;;;;;;5933554;24;19930;-86
2022/09/28 11:15:46;;;;;;;0.50;0.50;;;8.20;99.90;;;;;;5951201;23;20337;-90
2022/09/28 11:18:30;;;;;;;1.45;0.77;;;8.20;99.90;;;;;;5957476;24;20456;-84
2022/09/28 11:21:15;;;;;;;1.70;0.85;;;8.30;99.90;;;;;;5992668;23;20030;-87
2022/09/28 11:24:19;;;;;;;0.70;0.70;;;8.20;99.90;;;;;;5954034;24;20385;-86
2022/09/28 11:27:45;;;;;;;0.55;0.55;;;8.30;99.90;;;;;;5930877;24;20032;-90
2022/09/28 11:30:55;;;;;;;0.43;0.43;;;8.50;99.90;;;;;;5976484;23;20759;-86
2022/09/28 11:43:00;;;;;;;;;;;8.60;99.90;;;;;;5965062;23;20478;-84
2022/09/28 11:45:49;;;;;;;0.70;0.70;;;8.70;99.90;;;;;;6166465;23;19920;-84
2022/09/28 12:30:24;;;;;;;3.00;2.10;;;8.90;99.90;;;;;;6193788;23;20329;-87
2022/09/28 12:33:05;;;;;;;1.25;1.15;;;8.80;99.90;;;;;;6175572;23;20027;-88
2022/09/28 12:36:13;;;;;;;1.13;0.90;;;8.90;99.90;;;;;;6159386;23;20032;-87
2022/09/28 12:39:21;;;;;;;4.38;2.30;;;9.00;99.90;;;;;;6134918;23;20017;-87
2022/09/28 12:42:23;;;;;;;0.95;0.80;;;9.00;99.90;;;;;;6134812;23;20471;-83
2022/09/28 12:50:47;;;;;;;0.77;0.77;;;9.10;99.90;;;;;;6164077;23;20838;-85
2022/09/28 12:54:21;;;;;;;2.15;1.90;;;9.10;99.90;;;;;;6132128;23;20021;-85
2022/09/28 12:58:34;;;;;;;1.25;1.20;;;9.10;99.90;;;;;;6005947;23;20028;-84
2022/09/28 13:34:25;;;;;;;1.65;1.27;;;9.30;99.90;;;;;;6168953;22;20029;-85
2022/09/28 13:43:02;;;;;;;1.27;1.17;;;9.20;99.90;;;;;;6219693;23;20028;-84
2022/09/28 13:50:42;;;;;;;1.45;1.23;;;9.20;99.90;;;;;;6206517;22;20019;-85
2022/09/28 14:02:14;;;;;;;2.65;1.77;;;8.90;99.90;;;;;;6214931;23;20048;-84
2022/09/28 14:13:57;;;;;;;;;;;8.90;99.90;;;;;;6028094;23;20019;-84
2022/09/28 14:17:20;;;;;;;1.15;1.15;;;8.80;99.90;;;;;;6121459;23;19924;-84
2022/09/28 14:20:08;;;;;;;1.05;1.05;;;8.80;99.90;;;;;;6122912;23;20356;-85
2022/09/28 14:26:57;;;;;;;3.90;1.50;;;8.80;99.90;;;;;;6087385;23;20029;-85
2022/09/28 14:29:47;;;;;;;3.65;1.10;;;8.80;99.90;;;;;;6199048;23;20012;-85
2022/09/28 14:33:05;;;;;;;2.45;1.00;;;8.80;99.90;;;;;;6196763;23;20151;-85
2022/09/28 14:35:55;;;;;;;4.60;1.75;;;8.90;99.90;;;;;;6173994;23;20025;-85
2022/09/28 14:41:46;;;;;;;1.95;1.80;;;8.80;99.90;;;;;;6134944;23;20017;-85
2022/09/28 14:45:44;;;;;;;1.85;1.25;;;8.80;99.90;;;;;;6133783;23;20029;-86
2022/09/28 14:49:18;;;;;;;1.50;1.27;;;8.80;99.90;;;;;;6154630;23;20029;-85
2022/09/28 14:52:44;;;;;;;1.40;1.20;;;8.70;99.90;;;;;;6101268;23;20029;-84
2022/09/28 14:55:48;;;;;;;2.85;1.00;;;8.70;99.90;;;;;;6114806;23;20028;-85
2022/09/28 14:59:02;;;;;;;1.45;1.17;;;8.70;99.90;;;;;;6115348;23;20021;-85
2022/09/28 15:02:36;;;;;;;1.33;1.27;;;8.70;99.90;;;;;;6062896;23;20483;-86
2022/09/28 15:06:21;;;;;;;1.20;0.93;;;8.60;99.90;;;;;;6059468;23;20030;-86
2022/09/28 15:09:04;;;;;;;1.17;1.13;;;8.50;99.90;;;;;;6070757;23;20057;-85
2022/09/28 15:12:04;;;;;;;;;;;;;;;;;;;;;
2022/09/28 15:18:32;;;;;;;1.60;1.20;;;8.30;99.90;;;;;;6092768;23;20437;-84
2022/09/28 15:21:04;;;;;;;1.42;1.27;;;8.30;99.90;;;;;;6182855;23;20020;-83
2022/09/28 15:23:42;;;;;;;1.80;1.55;;;8.30;99.90;;;;;;6182300;23;20352;-83
2022/09/28 15:26:31;;;;;;;1.35;1.20;;;8.30;99.90;;;;;;6215618;23;20024;-83
2022/09/28 15:29:18;;;;;;;0.90;0.90;;;8.30;99.90;;;;;;6221036;23;20588;-83
2022/09/28 15:31:46;;;;;;;1.10;1.00;;;8.30;99.90;;;;;;6209784;23;20487;-83
2022/09/28 15:34:50;;;;;;;1.98;1.80;;;8.30;99.90;;;;;;6215314;22;20534;-85
2022/09/28 15:37:23;;;;;;;1.67;1.55;;;8.20;99.90;;;;;;6194009;23;20332;-83
2022/09/28 15:39:52;;;;;;;2.63;1.50;;;8.30;99.90;;;;;;6219411;22;20029;-84
2022/09/28 15:42:21;;;;;;;1.50;1.40;;;8.20;99.90;;;;;;6208534;23;20032;-83
2022/09/28 15:45:23;;;;;;;1.33;1.30;;;8.20;99.90;;;;;;6219764;23;20020;-83
2022/09/28 15:48:16;;;;;;;2.00;1.42;;;8.20;99.90;;;;;;6208532;23;20031;-82
2022/09/28 15:51:09;;;;;;;4.18;1.75;;;8.20;99.90;;;;;;6213492;23;20028;-83
2022/09/28 15:54:08;;;;;;;2.78;2.58;;;8.20;99.90;;;;;;6218174;22;20028;-83
2022/09/28 15:56:58;;;;;;;2.13;1.73;;;8.20;99.90;;;;;;6208836;23;20031;-83
2022/09/28 15:59:33;;;;;;;1.50;1.40;;;8.20;99.90;;;;;;6180116;23;20029;-82
2022/09/28 16:02:24;;;;;;;4.78;1.38;;;8.20;99.90;;;;;;6187126;23;20028;-82
2022/09/28 16:04:59;;;;;;;1.10;1.10;;;8.20;99.90;;;;;;6154430;23;20021;-83
2022/09/28 16:07:34;;;;;;;1.50;1.33;;;8.20;99.90;;;;;;6179532;23;20033;-81
2022/09/28 16:10:11;;;;;;;1.60;1.35;;;8.20;99.90;;;;;;6186872;23;20025;-81
2022/09/28 16:12:47;;;;;;;1.45;1.35;;;8.20;99.90;;;;;;6189598;23;20844;-81
2022/09/28 16:15:19;;;;;;;1.30;1.20;;;8.20;99.90;;;;;;6182402;23;20021;-83
2022/09/28 16:18:03;;;;;;;1.55;1.45;;;8.10;99.90;;;;;;6186551;23;20325;-83
2022/09/28 16:20:41;;;;;;;1.92;1.65;;;8.10;99.90;;;;;;6153201;23;20017;-80
2022/09/28 16:23:15;;;;;;;2.10;1.73;;;8.10;99.90;;;;;;6180471;23;20040;-81
2022/09/28 16:26:01;;;;;;;3.83;1.70;;;8.10;99.90;;;;;;6161693;23;20021;-81
2022/09/28 16:28:34;;;;;;;6.28;1.92;;;8.10;99.90;;;;;;6178242;23;20344;-82
2022/09/28 16:31:06;;;;;;;1.65;1.55;;;8.00;99.90;;;;;;6152734;23;20044;-83
2022/09/28 16:33:45;;;;;;;1.58;1.48;;;8.00;99.90;;;;;;6152612;23;20025;-82
2022/09/28 16:36:17;;;;;;;2.28;1.65;;;8.00;99.90;;;;;;6188986;23;20020;-80
2022/09/28 16:38:45;;;;;;;;;;;8.00;99.90;;;;;;6178123;23;20033;-82
2022/09/28 16:41:24;;;;;;;5.60;2.50;;;8.00;99.90;;;;;;6189715;23;20268;-82
2022/09/28 16:44:01;;;;;;;2.25;2.05;;;8.00;99.90;;;;;;6176550;23;20029;-81
2022/09/28 16:46:37;;;;;;;2.83;2.63;;;8.10;99.90;;;;;;6183496;23;20448;-83
2022/09/28 16:49:08;;;;;;;2.72;2.28;;;8.10;99.90;;;;;;6199730;23;20024;-82
2022/09/28 16:51:42;;;;;;;2.67;2.47;;;8.10;99.90;;;;;;6177363;23;20021;-83
2022/09/28 16:57:05;;;;;;;5.45;2.50;;;8.10;99.90;;;;;;6188451;23;20024;-81
2022/09/28 16:59:32;;;;;;;2.40;2.25;;;8.00;99.90;;;;;;6238106;22;20028;-82
2022/09/28 17:02:00;;;;;;;4.35;2.35;;;8.00;99.90;;;;;;6221037;23;20024;-81
2022/09/28 17:04:27;;;;;;;10.20;2.22;;;7.90;99.90;;;;;;6248380;23;20546;-81
2022/09/28 17:06:58;;;;;;;2.15;1.95;;;7.90;99.90;;;;;;6216624;23;20024;-83
2022/09/28 17:09:26;;;;;;;3.88;2.30;;;7.90;99.90;;;;;;6213756;23;20018;-83
2022/09/28 17:11:57;;;;;;;2.42;2.22;;;7.80;99.90;;;;;;6213394;23;20020;-83
2022/09/28 17:14:25;;;;;;;2.55;2.35;;;7.80;99.90;;;;;;6200527;23;20048;-82
2022/09/28 17:16:58;;;;;;;3.15;2.00;;;7.80;99.90;;;;;;6187970;23;20047;-83
2022/09/28 17:19:38;;;;;;;2.78;1.60;;;7.80;99.90;;;;;;6170630;23;20580;-88
2022/09/28 17:22:07;;;;;;;2.92;2.72;;;7.80;99.90;;;;;;6187930;23;20016;-88
2022/09/28 17:24:35;;;;;;;1.90;1.80;;;7.80;99.90;;;;;;6249962;23;20442;-87
2022/09/28 17:27:24;;;;;;;;;;;;;;;;;;;;;
2022/09/28 17:29:56;;;;;;;1.73;1.63;;;7.80;99.90;;;;;;6224056;23;20020;-88
2022/09/28 17:32:25;;;;;;;1.63;1.52;;;7.90;99.90;;;;;;6205581;23;20070;-89
2022/09/28 17:35:15;;;;;;;1.70;1.60;;;7.90;99.90;;;;;;6218711;23;20027;-91
2022/09/28 17:37:58;;;;;;;6.00;2.70;;;7.70;99.90;;;;;;6181928;23;20016;-89
2022/09/28 17:41:31;;;;;;;6.70;3.05;;;7.70;99.90;;;;;;6194761;23;20020;-89
2022/09/28 17:44:23;;;;;;;1.60;1.50;;;7.70;99.90;;;;;;6167301;23;20016;-88
2022/09/28 17:47:22;;;;;;;3.15;2.38;;;7.70;99.90;;;;;;6202516;23;20020;-90
2022/09/28 17:51:02;;;;;;;1.75;1.63;;;7.60;99.90;;;;;;6190922;23;20986;-91
2022/09/28 17:54:53;;;;;;;4.28;2.03;;;7.60;99.90;;;;;;6214995;23;20029;-90
2022/09/28 17:57:32;;;;;;;3.38;1.67;;;7.70;99.90;;;;;;6137794;23;20482;-88
2022/09/28 18:00:06;;;;;;;1.63;1.52;;;7.70;99.90;;;;;;6138228;23;20040;-88
2022/09/28 18:02:46;;;;;;;2.08;1.85;;;7.60;99.90;;;;;;6184351;23;20028;-88
2022/09/28 18:05:46;;;;;;;;;;;;;;;;;;;;;
2022/09/28 18:13:13;;;;;;;2.88;1.75;;;7.60;99.90;;;;;;6135115;23;20024;-88
2022/09/28 18:16:36;;;;;;;2.55;2.00;;;7.70;99.90;;;;;;6078682;23;20021;-89
2022/09/28 18:23:56;;;;;;;3.50;1.67;;;7.70;99.90;;;;;;6012990;23;20024;-88
2022/09/28 18:27:37;;;;;;;1.48;1.35;;;7.60;99.90;;;;;;6035199;23;20227;-87
2022/09/28 18:35:26;;;;;;;4.78;2.10;;;7.60;99.90;;;;;;6030551;23;20037;-87
2022/09/28 18:38:41;;;;;;;5.78;2.10;;;7.60;99.90;;;;;;6073910;23;20026;-87
2022/09/28 18:42:19;;;;;;;4.95;3.90;;;7.50;99.90;;;;;;6035473;23;20027;-87
2022/09/28 18:45:32;;;;;;;2.63;2.00;;;7.60;99.90;;;;;;6038268;23;20568;-87
2022/09/28 18:52:48;;;;;;;2.15;1.95;;;7.50;99.90;;;;;;6118062;23;20018;-87
2022/09/28 18:55:54;;;;;;;2.67;2.47;;;7.50;99.90;;;;;;6167045;23;20016;-87
2022/09/28 18:58:35;;;;;;;3.83;3.53;;;7.60;99.90;;;;;;6141259;23;20024;-87
2022/09/28 19:01:58;;;;;;;6.15;2.88;;;7.50;99.90;;;;;;6117692;23;20032;-88
2022/09/28 19:05:04;;;;;;;1.90;1.80;;;7.50;99.90;;;;;;6073668;23;20238;-87
2022/09/28 19:08:18;;;;;;;2.28;2.10;;;7.50;99.90;;;;;;6068012;23;20022;-86
2022/09/28 19:11:48;;;;;;;2.10;1.90;;;7.40;99.90;;;;;;6103295;23;20026;-87
2022/09/28 19:15:26;;;;;;;2.75;2.22;;;7.40;99.90;;;;;;6108479;23;20026;-93
2022/09/28 19:18:40;;;;;;;;;;;;;;;;;;;;;
2022/09/28 19:22:01;;;;;;;2.45;2.17;;;7.30;99.90;;;;;;6108901;23;20253;-88
2022/09/28 19:24:45;;;;;;;2.97;2.05;;;7.40;99.90;;;;;;6039835;23;20369;-89
2022/09/28 19:27:20;;;;;;;2.75;2.50;;;7.40;99.90;;;;;;6051192;23;20018;-89
2022/09/28 19:30:37;;;;;;;3.13;1.67;;;7.40;99.90;;;;;;6034655;23;20049;-88
2022/09/28 19:33:19;;;;;;;1.45;1.35;;;7.30;99.90;;;;;;6040380;23;20530;-87
2022/09/28 19:36:49;;;;;;;;;;;;;;;;;;;;;
2022/09/28 19:45:18;;;;;;;;;;;;;;;;;;;;;
2022/09/28 19:54:24;;;;;;;1.65;1.40;;;7.20;99.90;;;;;;5945126;24;20032;-88
2022/09/28 20:03:07;;;;;;;1.33;1.23;;;7.20;99.90;;;;;;5937946;23;20022;-88
2022/09/28 20:07:03;;;;;;;6.25;2.35;;;7.20;99.90;;;;;;6007768;23;20118;-88
2022/09/28 20:11:02;;;;;;;2.90;1.95;;;7.10;99.90;;;;;;6044419;23;20023;-89
2022/09/28 20:15:19;;;;;;;2.35;2.15;;;7.20;99.90;;;;;;5958123;23;20035;-88
2022/09/28 20:19:50;;;;;;;1.60;1.50;;;7.30;99.90;;;;;;5938112;23;20020;-87
2022/09/28 20:47:44;;;;;;;18.80;3.35;;;6.90;99.90;;;;;;6173007;23;20341;-89
2022/09/28 20:57:47;;;;;;;0.80;0.80;;;6.90;99.90;;;;;;6054549;23;20026;-89
2022/09/28 21:06:03;;;;;;;1.20;1.05;;;6.80;99.90;;;;;;6076230;23;20023;-89
2022/09/28 21:11:15;;;;;;;;;;;;;;;;;;;;;
2022/09/28 21:15:15;;;;;;;0.93;0.77;;;6.80;99.90;;;;;;5930265;24;20129;-88
2022/09/28 21:24:56;;;;;;;0.80;0.80;;;6.80;99.90;;;;;;5930996;23;20031;-87
2022/09/28 21:29:25;;;;;;;0.90;0.85;;;6.80;99.90;;;;;;6064245;23;20026;-90
2022/09/28 21:42:45;;;;;;;1.63;1.23;;;6.70;99.90;;;;;;5826431;24;20018;-89
2022/09/28 21:46:54;;;;;;;1.10;0.88;;;6.90;99.90;;;;;;5778873;24;20031;-88
2022/09/28 21:51:31;;;;;;;0.80;0.80;;;6.70;99.90;;;;;;5804498;24;20025;-86
2022/09/28 22:00:23;;;;;;;;;;;;;;;;;;;;;
2022/09/28 22:57:56;;;;;;;;;;;;;;;;;;;;;
2022/09/28 23:43:56;;;;;;;0.90;0.90;;;6.40;99.90;;;;;;6232357;23;20028;-87
2022/09/28 23:47:37;;;;;;;2.70;1.02;;;6.30;99.90;;;;;;6148737;23;20036;-88
